createdAt,value
2022-12-09T00:01:22.653Z,100324.59
2022-12-09T00:03:50.272Z,100327.06
2022-12-09T00:06:27.631Z,100331.03
2022-12-09T00:08:55.690Z,100322.56
2022-12-09T00:11:23.903Z,100325.38
2022-12-09T00:13:52.340Z,100318.16
2022-12-09T00:16:20.085Z,100323.00
2022-12-09T00:18:47.076Z,100309.69
2022-12-09T00:21:18.460Z,100312.50
2022-12-09T00:23:45.382Z,100306.09
2022-12-09T00:26:12.560Z,100304.06
2022-12-09T00:28:39.971Z,100318.16
2022-12-09T00:31:07.385Z,100318.16
2022-12-09T00:33:35.094Z,100312.50
2022-12-09T00:36:08.878Z,100316.59
2022-12-09T00:38:36.303Z,100318.59
2022-12-09T00:41:04.458Z,100316.59
2022-12-09T00:43:31.297Z,100320.63
2022-12-09T00:45:58.167Z,100322.22
2022-12-09T00:48:25.726Z,100319.41
2022-12-09T00:50:52.412Z,100316.59
2022-12-09T00:53:19.080Z,100307.75
2022-12-09T00:55:46.474Z,100313.78
2022-12-09T00:58:14.413Z,100322.22
2022-12-09T01:00:41.492Z,100310.13
2022-12-09T01:03:12.904Z,100316.59
2022-12-09T01:05:39.883Z,100316.59
2022-12-09T01:08:06.911Z,100328.66
2022-12-09T01:10:34.506Z,100320.63
2022-12-09T01:13:02.420Z,100321.41
2022-12-09T01:15:29.180Z,100320.28
2022-12-09T01:17:55.821Z,100323.13
2022-12-09T01:20:22.682Z,100327.88
2022-12-09T01:22:49.374Z,100331.56
2022-12-09T01:25:16.173Z,100344.78
2022-12-09T01:27:44.261Z,100340.38
2022-12-09T01:30:13.591Z,100338.00
2022-12-09T01:32:41.599Z,100347.59
2022-12-09T01:35:08.778Z,100346.44
2022-12-09T01:37:37.383Z,100337.56
2022-12-09T01:40:19.071Z,100344.78
2022-12-09T01:42:46.094Z,100348.03
2022-12-09T01:45:22.068Z,100345.22
2022-12-09T01:47:56.485Z,100343.19
2022-12-09T01:50:24.149Z,100340.38
2022-12-09T01:52:51.072Z,100336.78
2022-12-09T01:55:18.059Z,100346.00
2022-12-09T01:57:45.709Z,100350.44
2022-12-09T02:00:14.505Z,100343.97
2022-12-09T02:02:47.278Z,100338.00
2022-12-09T02:05:19.838Z,100345.22
2022-12-09T02:07:52.404Z,100340.81
2022-12-09T02:10:19.948Z,100339.16
2022-12-09T02:13:27.023Z,100330.69
2022-12-09T02:15:58.139Z,100337.09
2022-12-09T02:18:42.283Z,100335.97
2022-12-09T02:21:19.030Z,100337.56
2022-12-09T02:24:08.955Z,100326.28
2022-12-09T02:26:41.954Z,100327.88
2022-12-09T02:29:39.905Z,100326.28
2022-12-09T02:32:17.865Z,100323.00
2022-12-09T02:35:20.721Z,100316.59
2022-12-09T02:37:55.400Z,100321.41
2022-12-09T02:40:31.915Z,100315.78
2022-12-09T02:43:00.692Z,100317.81
2022-12-09T02:45:31.084Z,100320.63
2022-12-09T02:48:02.315Z,100318.16
2022-12-09T02:50:34.924Z,100318.16
2022-12-09T02:53:08.703Z,100316.59
2022-12-09T02:55:37.488Z,100319.41
2022-12-09T02:58:04.156Z,100328.66
2022-12-09T03:00:33.478Z,100321.31
2022-12-09T03:03:03.104Z,100310.03
2022-12-09T03:05:47.925Z,100310.03
2022-12-09T03:08:29.114Z,100314.13
2022-12-09T03:11:01.757Z,100323.34
2022-12-09T03:13:34.620Z,100321.31
2022-12-09T03:16:36.036Z,100324.25
2022-12-09T03:19:24.052Z,100319.75
2022-12-09T03:21:54.666Z,100318.50
2022-12-09T03:24:26.333Z,100299.66
2022-12-09T03:26:54.417Z,100306.88
2022-12-09T03:29:26.919Z,100312.84
2022-12-09T03:31:56.243Z,100311.72
2022-12-09T03:34:28.588Z,100306.00
2022-12-09T03:36:58.377Z,100311.28
2022-12-09T03:39:31.716Z,100311.28
2022-12-09T03:42:04.032Z,100309.25
2022-12-09T03:44:45.225Z,100309.25
2022-12-09T03:47:12.126Z,100309.59
2022-12-09T03:49:40.381Z,100298.75
2022-12-09T03:52:14.239Z,100304.41
2022-12-09T03:54:49.774Z,100305.22
2022-12-09T03:57:19.922Z,100300.34
2022-12-09T04:00:13.576Z,100300.00
2022-12-09T04:02:40.566Z,100293.13
2022-12-09T04:05:07.832Z,100291.09
2022-12-09T04:07:34.825Z,100290.28
2022-12-09T04:10:01.503Z,100294.72
2022-12-09T04:12:28.342Z,100293.50
2022-12-09T04:14:54.931Z,100282.31
2022-12-09T04:17:21.895Z,100286.25
2022-12-09T04:19:48.632Z,100295.94
2022-12-09T04:22:15.203Z,100287.84
2022-12-09T04:24:41.685Z,100273.03
2022-12-09T04:27:11.261Z,100281.84
2022-12-09T04:29:38.376Z,100284.22
2022-12-09T04:32:05.495Z,100277.44
2022-12-09T04:34:34.029Z,100280.28
2022-12-09T04:37:01.008Z,100278.56
2022-12-09T04:39:27.641Z,100279.38
2022-12-09T04:41:54.381Z,100274.63
2022-12-09T04:44:21.388Z,100276.19
2022-12-09T04:46:49.144Z,100278.22
2022-12-09T04:49:16.191Z,100269.34
2022-12-09T04:51:42.897Z,100270.56
2022-12-09T04:54:14.622Z,100264.91
2022-12-09T04:56:41.796Z,100272.16
2022-12-09T04:59:08.593Z,100266.50
2022-12-09T05:01:35.479Z,100281.84
2022-12-09T05:04:02.994Z,100271.38
2022-12-09T05:06:29.886Z,100271.81
2022-12-09T05:08:57.287Z,100275.41
2022-12-09T05:11:25.065Z,100289.50
2022-12-09T05:13:53.941Z,100276.19
2022-12-09T05:16:20.929Z,100279.81
2022-12-09T05:18:49.126Z,100286.69
2022-12-09T05:21:18.747Z,100286.69
2022-12-09T05:23:45.788Z,100295.59
2022-12-09T05:26:15.247Z,100291.56
2022-12-09T05:28:42.497Z,100292.00
2022-12-09T05:31:13.233Z,100300.00
2022-12-09T05:33:40.513Z,100306.88
2022-12-09T05:36:15.161Z,100299.66
2022-12-09T05:38:42.354Z,100306.09
2022-12-09T05:41:09.454Z,100307.31
2022-12-09T05:43:37.074Z,100312.19
2022-12-09T05:46:06.034Z,100301.69
2022-12-09T05:48:33.525Z,100298.06
2022-12-09T05:51:05.942Z,100303.72
2022-12-09T05:53:33.410Z,100297.28
2022-12-09T05:56:00.964Z,100298.53
2022-12-09T05:58:28.272Z,100297.72
2022-12-09T06:00:56.717Z,100294.09
2022-12-09T06:03:24.545Z,100297.72
2022-12-09T06:05:52.183Z,100292.09
2022-12-09T06:08:19.598Z,100291.28
2022-12-09T06:10:47.029Z,100287.69
2022-12-09T06:13:14.050Z,100295.69
2022-12-09T06:15:41.073Z,100287.25
2022-12-09T06:18:08.121Z,100290.06
2022-12-09T06:20:34.906Z,100295.25
2022-12-09T06:23:01.461Z,100290.84
2022-12-09T06:25:28.501Z,100298.53
2022-12-09T06:27:55.134Z,100293.66
2022-12-09T06:30:21.767Z,100295.69
2022-12-09T06:32:49.010Z,100290.50
2022-12-09T06:35:17.026Z,100287.69
2022-12-09T06:37:44.370Z,100290.06
2022-12-09T06:40:11.827Z,100293.31
2022-12-09T06:42:38.931Z,100292.53
2022-12-09T06:45:06.842Z,100293.31
2022-12-09T06:47:33.920Z,100297.38
2022-12-09T06:50:06.510Z,100297.38
2022-12-09T06:52:33.773Z,100299.41
2022-12-09T06:55:00.685Z,100294.22
2022-12-09T06:57:27.466Z,100292.28
2022-12-09T06:59:55.027Z,100295.81
2022-12-09T07:02:22.201Z,100306.72
2022-12-09T07:04:54.310Z,100305.16
2022-12-09T07:07:21.289Z,100298.25
2022-12-09T07:09:48.815Z,100294.31
2022-12-09T07:12:16.031Z,100302.31
2022-12-09T07:14:43.057Z,100300.28
2022-12-09T07:17:15.944Z,100307.97
2022-12-09T07:19:42.681Z,100304.44
2022-12-09T07:22:09.713Z,100311.22
2022-12-09T07:24:38.796Z,100308.06
2022-12-09T07:27:10.770Z,100308.84
2022-12-09T07:29:40.265Z,100316.53
2022-12-09T07:32:10.718Z,100308.84
2022-12-09T07:34:38.994Z,100312.88
2022-12-09T07:37:05.873Z,100314.50
2022-12-09T07:39:32.945Z,100311.31
2022-12-09T07:41:59.650Z,100313.31
2022-12-09T07:44:30.351Z,100319.34
2022-12-09T07:46:57.484Z,100314.16
2022-12-09T07:49:24.962Z,100313.31
2022-12-09T07:51:52.083Z,100314.94
2022-12-09T07:54:19.945Z,100318.53
2022-12-09T07:56:47.422Z,100319.41
2022-12-09T07:59:15.357Z,100326.97
2022-12-09T08:01:42.838Z,100326.66
2022-12-09T08:04:10.206Z,100328.59
2022-12-09T08:06:37.994Z,100321.78
2022-12-09T08:09:09.233Z,100325.75
2022-12-09T08:11:36.776Z,100335.44
2022-12-09T08:14:11.428Z,100334.22
2022-12-09T08:16:41.172Z,100342.69
2022-12-09T08:19:08.997Z,100341.09
2022-12-09T08:21:36.135Z,100343.47
2022-12-09T08:24:05.948Z,100330.63
2022-12-09T08:26:34.120Z,100334.22
2022-12-09T08:29:01.353Z,100335.00
2022-12-09T08:31:28.853Z,100340.19
2022-12-09T08:33:56.827Z,100334.56
2022-12-09T08:36:28.418Z,100346.63
2022-12-09T08:38:58.105Z,100341.78
2022-12-09T08:41:35.826Z,100338.53
2022-12-09T08:44:12.284Z,100336.16
2022-12-09T08:46:42.688Z,100343.34
2022-12-09T08:49:10.230Z,100340.97
2022-12-09T08:51:38.149Z,100352.19
2022-12-09T08:54:05.997Z,100353.75
2022-12-09T08:56:32.918Z,100331.19
2022-12-09T08:58:59.768Z,100335.63
2022-12-09T09:01:32.664Z,100331.56
2022-12-09T09:04:06.408Z,100332.34
2022-12-09T09:06:34.200Z,100331.13
2022-12-09T09:09:01.131Z,100336.31
2022-12-09T09:11:28.947Z,100324.25
2022-12-09T09:13:57.195Z,100337.09
2022-12-09T09:16:26.521Z,100327.88
2022-12-09T09:18:54.395Z,100343.09
2022-12-09T09:21:26.963Z,100338.22
2022-12-09T09:23:54.040Z,100336.66
2022-12-09T09:26:23.161Z,100347.06
2022-12-09T09:28:50.993Z,100343.00
2022-12-09T09:31:21.276Z,100336.56
2022-12-09T09:33:48.922Z,100338.94
2022-12-09T09:36:21.837Z,100346.19
2022-12-09T09:38:50.357Z,100346.97
2022-12-09T09:41:56.358Z,100353.38
2022-12-09T09:44:52.185Z,100346.97
2022-12-09T09:47:40.827Z,100344.59
2022-12-09T09:50:26.341Z,100337.34
2022-12-09T09:52:55.211Z,100341.75
2022-12-09T09:55:36.076Z,100336.47
2022-12-09T09:58:18.816Z,100336.47
2022-12-09T10:01:12.772Z,100336.03
2022-12-09T10:03:49.990Z,100332.75
2022-12-09T10:06:31.280Z,100338.75
2022-12-09T10:09:04.980Z,100337.53
2022-12-09T10:11:42.043Z,100336.72
2022-12-09T10:14:17.769Z,100332.22
2022-12-09T10:16:55.159Z,100331.00
2022-12-09T10:19:33.708Z,100328.16
2022-12-09T10:22:12.097Z,100333.81
2022-12-09T10:24:48.583Z,100334.16
2022-12-09T10:27:44.024Z,100331.34
2022-12-09T10:30:17.404Z,100335.75
2022-12-09T10:32:44.984Z,100331.69
2022-12-09T10:35:16.859Z,100337.69
2022-12-09T10:37:44.584Z,100333.63
2022-12-09T10:40:16.635Z,100334.41
2022-12-09T10:43:14.667Z,100335.19
2022-12-09T10:46:16.679Z,100335.97
2022-12-09T10:48:43.062Z,100336.78
2022-12-09T10:51:22.917Z,100331.94
2022-12-09T10:53:58.188Z,100325.06
2022-12-09T10:56:35.837Z,100320.22
2022-12-09T10:59:22.481Z,100328.66
2022-12-09T11:02:03.750Z,100320.53
2022-12-09T11:04:35.023Z,100321.34
2022-12-09T11:07:23.965Z,100316.50
2022-12-09T11:09:56.796Z,100325.31
2022-12-09T11:12:27.328Z,100318.88
2022-12-09T11:14:58.515Z,100324.84
2022-12-09T11:17:30.040Z,100322.84
2022-12-09T11:20:06.113Z,100326.00
2022-12-09T11:22:42.369Z,100320.34
2022-12-09T11:25:12.101Z,100317.88
2022-12-09T11:27:42.724Z,100306.59
2022-12-09T11:30:25.927Z,100315.38
2022-12-09T11:32:59.800Z,100313.81
2022-12-09T11:35:32.140Z,100315.38
2022-12-09T11:38:03.503Z,100312.56
2022-12-09T11:40:32.552Z,100308.84
2022-12-09T11:42:59.365Z,100296.00
2022-12-09T11:45:35.776Z,100314.88
2022-12-09T11:48:35.071Z,100299.16
2022-12-09T11:51:05.795Z,100308.78
2022-12-09T11:53:40.656Z,100303.91
2022-12-09T11:56:18.399Z,100304.38
2022-12-09T11:59:06.538Z,100304.03
2022-12-09T12:02:05.875Z,100298.72
2022-12-09T12:04:41.598Z,100301.88
2022-12-09T12:07:15.858Z,100305.47
2022-12-09T12:09:50.491Z,100305.03
2022-12-09T12:12:41.590Z,100302.22
2022-12-09T12:15:17.687Z,100310.22
2022-12-09T12:17:52.025Z,100301.75
2022-12-09T12:20:18.770Z,100297.72
2022-12-09T12:23:02.914Z,100301.31
2022-12-09T12:26:01.887Z,100300.53
2022-12-09T12:28:47.781Z,100302.91
2022-12-09T12:31:23.102Z,100307.34
2022-12-09T12:34:26.725Z,100302.91
2022-12-09T12:37:16.936Z,100298.06
2022-12-09T12:40:06.094Z,100296.81
2022-12-09T12:42:40.927Z,100300.44
2022-12-09T12:45:39.768Z,100299.31
2022-12-09T12:48:16.048Z,100305.63
2022-12-09T12:50:54.466Z,100299.97
2022-12-09T12:53:49.153Z,100297.16
2022-12-09T12:56:19.140Z,100295.59
2022-12-09T12:59:04.473Z,100298.75
2022-12-09T13:01:51.352Z,100291.06
2022-12-09T13:04:46.914Z,100287.13
2022-12-09T13:07:54.961Z,100283.41
2022-12-09T13:10:24.302Z,100288.25
2022-12-09T13:12:55.145Z,100290.28
2022-12-09T13:15:23.771Z,100273.00
2022-12-09T13:17:51.598Z,100276.50
2022-12-09T13:20:28.322Z,100272.44
2022-12-09T13:23:01.832Z,100268.38
2022-12-09T13:25:52.817Z,100272.13
2022-12-09T13:28:28.556Z,100271.19
2022-12-09T13:30:58.637Z,100278.09
2022-12-09T13:33:53.923Z,100284.97
2022-12-09T13:36:43.224Z,100280.91
2022-12-09T13:39:11.824Z,100280.47
2022-12-09T13:42:04.059Z,100280.47
2022-12-09T13:44:34.435Z,100277.75
2022-12-09T13:47:34.498Z,100279.66
2022-12-09T13:50:06.085Z,100286.91
2022-12-09T13:52:46.417Z,100283.41
2022-12-09T13:55:47.748Z,100273.69
2022-12-09T13:58:40.280Z,100280.91
2022-12-09T14:01:12.752Z,100282.47
2022-12-09T14:04:08.872Z,100279.31
2022-12-09T14:06:46.905Z,100276.94
2022-12-09T14:09:32.525Z,100273.22
2022-12-09T14:12:06.274Z,100265.56
2022-12-09T14:14:33.589Z,100275.28
2022-12-09T14:17:04.357Z,100271.19
2022-12-09T14:19:33.761Z,100284.06
2022-12-09T14:22:22.476Z,100280.91
2022-12-09T14:24:57.913Z,100266.47
2022-12-09T14:27:27.378Z,100267.13
2022-12-09T14:30:28.049Z,100266.47
2022-12-09T14:33:00.013Z,100268.47
2022-12-09T14:35:35.415Z,100282.16
2022-12-09T14:38:34.542Z,100280.59
2022-12-09T14:41:39.815Z,100278.22
2022-12-09T14:44:21.442Z,100268.25
2022-12-09T14:49:44.953Z,100268.94
2022-12-09T14:52:27.176Z,100270.19
2022-12-09T14:54:56.496Z,100271.41
2022-12-09T14:57:32.762Z,100271.41
2022-12-09T14:59:59.785Z,100268.72
2022-12-09T15:02:31.753Z,100268.25
2022-12-09T15:05:00.912Z,100272.66
2022-12-09T15:07:30.137Z,100263.06
2022-12-09T15:10:01.168Z,100269.03
2022-12-09T15:12:32.689Z,100266.66
2022-12-09T15:15:24.345Z,100272.31
2022-12-09T15:18:06.343Z,100266.34
2022-12-09T15:20:39.086Z,100265.63
2022-12-09T15:23:20.675Z,100278.19
2022-12-09T15:25:53.372Z,100276.91
2022-12-09T15:28:26.845Z,100285.06
2022-12-09T15:31:00.708Z,100288.66
2022-12-09T15:33:30.850Z,100285.50
2022-12-09T15:36:08.771Z,100285.50
2022-12-09T15:38:44.022Z,100287.16
2022-12-09T15:41:29.166Z,100281.53
2022-12-09T15:44:00.944Z,100284.00
2022-12-09T15:46:28.689Z,100279.25
2022-12-09T15:48:58.135Z,100285.72
2022-12-09T15:51:26.752Z,100286.59
2022-12-09T15:54:02.529Z,100281.75
2022-12-09T15:56:32.252Z,100280.59
2022-12-09T15:59:06.072Z,100280.38
2022-12-09T16:01:34.143Z,100289.97
2022-12-09T16:04:02.690Z,100290.06
2022-12-09T16:06:33.394Z,100296.50
2022-12-09T16:09:01.071Z,100298.97
2022-12-09T16:11:41.292Z,100295.81
2022-12-09T16:14:12.959Z,100296.81
2022-12-09T16:16:50.028Z,100303.13
2022-12-09T16:19:34.510Z,100308.09
2022-12-09T16:22:04.503Z,100308.09
2022-12-09T16:24:58.090Z,100300.19
2022-12-09T16:27:26.415Z,100307.38
2022-12-09T16:30:01.768Z,100302.19
2022-12-09T16:32:40.772Z,100296.31
2022-12-09T16:35:11.450Z,100303.50
2022-12-09T16:37:49.894Z,100302.84
2022-12-09T16:40:27.160Z,100307.69
2022-12-09T16:43:17.628Z,100303.72
2022-12-09T16:45:49.481Z,100303.72
2022-12-09T16:48:19.457Z,100302.56
2022-12-09T16:50:54.903Z,100309.47
2022-12-09T16:53:33.439Z,100298.25
2022-12-09T16:56:02.019Z,100307.97
2022-12-09T16:58:30.901Z,100295.97
2022-12-09T17:01:00.296Z,100311.31
2022-12-09T17:03:46.034Z,100313.00
2022-12-09T17:06:17.928Z,100311.84
2022-12-09T17:08:45.106Z,100309.00
2022-12-09T17:11:12.460Z,100312.75
2022-12-09T17:13:39.438Z,100316.34
2022-12-09T17:16:06.844Z,100309.56
2022-12-09T17:18:34.321Z,100321.66
2022-12-09T17:21:07.094Z,100316.44
2022-12-09T17:23:39.353Z,100314.84
2022-12-09T17:26:09.189Z,100320.94
2022-12-09T17:28:36.458Z,100315.72
2022-12-09T17:31:08.457Z,100322.97
2022-12-09T17:33:37.222Z,100319.88
2022-12-09T17:36:09.603Z,100321.38
2022-12-09T17:38:39.771Z,100319.09
2022-12-09T17:41:10.313Z,100326.22
2022-12-09T17:43:37.271Z,100338.28
2022-12-09T17:46:05.675Z,100345.13
2022-12-09T17:48:34.071Z,100342.31
2022-12-09T17:51:06.644Z,100336.00
2022-12-09T17:53:36.140Z,100337.56
2022-12-09T17:56:14.857Z,100341.63
2022-12-09T17:58:42.388Z,100340.47
2022-12-09T18:01:20.229Z,100352.03
2022-12-09T18:03:56.139Z,100356.06
2022-12-09T18:06:28.411Z,100352.47
2022-12-09T18:08:55.113Z,100357.38
2022-12-09T18:11:22.529Z,100366.66
2022-12-09T18:13:50.485Z,100368.94
2022-12-09T18:16:18.021Z,100371.03
2022-12-09T18:18:44.916Z,100365.84
2022-12-09T18:21:15.615Z,100380.22
2022-12-09T18:23:43.120Z,100378.63
2022-12-09T18:26:11.797Z,100384.25
2022-12-09T18:28:38.947Z,100381.09
2022-12-09T18:31:15.066Z,100384.25
2022-12-09T18:33:42.323Z,100379.84
2022-12-09T18:36:10.806Z,100380.66
2022-12-09T18:38:38.596Z,100382.66
2022-12-09T18:41:09.626Z,100380.75
2022-12-09T18:43:38.720Z,100391.09
2022-12-09T18:46:11.012Z,100393.59
2022-12-09T18:48:38.754Z,100382.31
2022-12-09T18:51:08.598Z,100375.53
2022-12-09T18:53:35.195Z,100388.38
2022-12-09T18:56:05.426Z,100393.25
2022-12-09T18:59:04.251Z,100388.81
2022-12-09T19:01:24.572Z,100385.22
2022-12-09T19:03:54.061Z,100386.00
2022-12-09T19:06:25.936Z,100394.13
2022-12-09T19:08:56.643Z,100385.66
2022-12-09T19:11:29.093Z,100384.06
2022-12-09T19:13:55.968Z,100388.47
2022-12-09T19:16:24.002Z,100395.34
2022-12-09T19:18:51.015Z,100391.72
2022-12-09T19:21:19.319Z,100396.59
2022-12-09T19:23:46.881Z,100400.97
2022-12-09T19:26:18.662Z,100400.63
2022-12-09T19:28:56.412Z,100406.25
2022-12-09T19:31:28.577Z,100411.91
2022-12-09T19:34:00.500Z,100415.94
2022-12-09T19:36:30.576Z,100418.41
2022-12-09T19:38:57.958Z,100410.72
2022-12-09T19:41:24.451Z,100418.41
2022-12-09T19:43:55.312Z,100421.22
2022-12-09T19:46:21.790Z,100423.69
2022-12-09T19:48:48.283Z,100424.13
2022-12-09T19:51:16.590Z,100426.50
2022-12-09T19:53:43.475Z,100428.16
2022-12-09T19:56:15.240Z,100434.63
2022-12-09T19:58:43.060Z,100432.16
2022-12-09T20:01:12.292Z,100417.31
2022-12-09T20:03:40.934Z,100422.97
2022-12-09T20:06:09.917Z,100423.34
2022-12-09T20:08:37.471Z,100423.34
2022-12-09T20:11:05.188Z,100428.16
2022-12-09T20:13:32.276Z,100424.56
2022-12-09T20:16:04.424Z,100428.59
2022-12-09T20:18:31.218Z,100430.63
2022-12-09T20:21:01.443Z,100441.13
2022-12-09T20:23:28.338Z,100443.13
2022-12-09T20:25:54.902Z,100434.75
2022-12-09T20:28:21.374Z,100442.34
2022-12-09T20:30:47.814Z,100440.75
2022-12-09T20:33:14.416Z,100450.44
2022-12-09T20:35:40.792Z,100450.44
2022-12-09T20:38:08.638Z,100450.09
2022-12-09T20:40:40.349Z,100455.72
2022-12-09T20:43:07.182Z,100461.78
2022-12-09T20:45:33.638Z,100448.16
2022-12-09T20:48:00.087Z,100452.19
2022-12-09T20:50:26.561Z,100455.00
2022-12-09T20:52:53.051Z,100450.59
2022-12-09T20:55:20.463Z,100452.63
2022-12-09T20:57:46.952Z,100455.88
2022-12-09T21:00:13.629Z,100455.06
2022-12-09T21:02:40.119Z,100455.88
2022-12-09T21:05:09.531Z,100455.06
2022-12-09T21:07:35.917Z,100460.72
2022-12-09T21:10:02.407Z,100463.53
2022-12-09T21:12:28.850Z,100452.69
2022-12-09T21:14:55.466Z,100455.94
2022-12-09T21:17:21.897Z,100460.34
2022-12-09T21:19:48.309Z,100457.94
2022-12-09T21:22:14.752Z,100449.59
2022-12-09T21:24:41.229Z,100455.13
2022-12-09T21:27:07.742Z,100458.75
2022-12-09T21:29:34.191Z,100455.94
2022-12-09T21:32:01.693Z,100448.28
2022-12-09T21:34:28.336Z,100453.56
2022-12-09T21:36:54.951Z,100452.78
2022-12-09T21:39:21.463Z,100453.56
2022-12-09T21:41:48.166Z,100458.41
2022-12-09T21:44:18.221Z,100458.41
2022-12-09T21:46:45.512Z,100451.97
2022-12-09T21:49:13.304Z,100454.00
2022-12-09T21:51:40.744Z,100461.66
2022-12-09T21:54:07.376Z,100465.69
2022-12-09T21:56:35.645Z,100471.34
2022-12-09T21:59:04.338Z,100463.31
2022-12-09T22:01:41.915Z,100468.16
2022-12-09T22:04:11.754Z,100462.09
2022-12-09T22:06:38.879Z,100466.91
2022-12-09T22:09:07.127Z,100468.16
2022-12-09T22:11:36.287Z,100476.19
2022-12-09T22:14:03.272Z,100474.59
2022-12-09T22:16:37.094Z,100478.19
2022-12-09T22:19:04.053Z,100474.66
2022-12-09T22:21:33.771Z,100474.66
2022-12-09T22:24:02.942Z,100481.50
2022-12-09T22:26:30.039Z,100488.75
2022-12-09T22:28:59.234Z,100469.97
2022-12-09T22:31:29.604Z,100478.69
2022-12-09T22:34:00.195Z,100480.28
2022-12-09T22:36:27.823Z,100478.25
2022-12-09T22:38:54.412Z,100480.28
2022-12-09T22:41:23.474Z,100481.88
2022-12-09T22:43:51.521Z,100481.88
2022-12-09T22:46:22.148Z,100484.69
2022-12-09T22:48:49.091Z,100484.31
2022-12-09T22:51:20.522Z,100490.31
2022-12-09T22:53:48.807Z,100490.31
2022-12-09T22:56:15.273Z,100481.88
2022-12-09T22:58:42.075Z,100486.72
2022-12-09T23:01:10.945Z,100485.94
2022-12-09T23:03:37.584Z,100485.19
2022-12-09T23:06:04.345Z,100491.19
2022-12-09T23:08:30.905Z,100488.38
2022-12-09T23:11:06.816Z,100473.06
2022-12-09T23:13:39.006Z,100484.31
2022-12-09T23:16:09.115Z,100479.56
2022-12-09T23:18:36.138Z,100481.50
2022-12-09T23:21:05.396Z,100468.66
2022-12-09T23:23:32.547Z,100478.69
2022-12-09T23:26:07.217Z,100478.69
2022-12-09T23:28:38.528Z,100478.69
2022-12-09T23:31:07.100Z,100477.91
2022-12-09T23:33:34.665Z,100468.66
2022-12-09T23:36:09.683Z,100477.09
2022-12-09T23:38:36.889Z,100471.47
2022-12-09T23:41:05.407Z,100473.50
2022-12-09T23:43:36.629Z,100467.50
2022-12-09T23:46:15.623Z,100469.91
2022-12-09T23:48:44.120Z,100465.91
2022-12-09T23:51:12.805Z,100474.75
2022-12-09T23:53:40.914Z,100471.97
2022-12-09T23:56:10.577Z,100481.59
2022-12-09T23:58:37.010Z,100475.59
